createdAt,value
2023-05-17T00:02:13.852Z,3.53
2023-05-17T00:04:40.841Z,3.80
2023-05-17T00:07:07.778Z,3.50
2023-05-17T00:09:34.722Z,3.83
2023-05-17T00:12:02.083Z,3.40
2023-05-17T00:14:29.048Z,3.57
2023-05-17T00:16:56.108Z,3.60
2023-05-17T00:19:23.157Z,3.87
2023-05-17T00:21:50.674Z,3.20
2023-05-17T00:24:17.920Z,3.20
2023-05-17T00:26:44.846Z,3.77
2023-05-17T00:29:11.859Z,4.20
2023-05-17T00:31:38.855Z,4.07
2023-05-17T00:34:05.945Z,4.10
2023-05-17T00:36:32.928Z,4.30
2023-05-17T00:38:59.917Z,4.00
2023-05-17T00:41:26.967Z,4.00
2023-05-17T00:43:54.131Z,4.20
2023-05-17T00:46:21.115Z,4.90
2023-05-17T00:48:48.237Z,4.50
2023-05-17T00:51:16.840Z,3.97
2023-05-17T00:53:43.938Z,4.20
2023-05-17T00:56:11.016Z,4.00
2023-05-17T00:58:38.466Z,3.57
2023-05-17T01:01:05.590Z,4.03
2023-05-17T01:03:32.917Z,3.57
2023-05-17T01:05:59.965Z,3.23
2023-05-17T01:08:26.921Z,3.70
2023-05-17T01:11:36.120Z,3.37
2023-05-17T01:14:22.352Z,3.63
2023-05-17T01:17:16.674Z,3.60
2023-05-17T01:20:12.227Z,4.83
2023-05-17T01:22:45.999Z,4.40
2023-05-17T01:25:42.544Z,4.57
2023-05-17T01:28:11.976Z,4.73
2023-05-17T01:30:41.662Z,4.50
2023-05-17T01:33:10.134Z,5.27
2023-05-17T01:35:37.225Z,4.80
2023-05-17T01:38:04.223Z,5.60
2023-05-17T01:40:36.462Z,5.43
2023-05-17T01:43:31.808Z,5.00
2023-05-17T01:46:16.497Z,4.97
2023-05-17T01:49:11.062Z,5.60
2023-05-17T01:51:49.224Z,5.73
2023-05-17T01:54:23.813Z,4.93
2023-05-17T01:56:59.066Z,4.20
2023-05-17T01:59:28.279Z,4.67
2023-05-17T02:02:06.279Z,4.10
2023-05-17T02:04:33.395Z,4.30
2023-05-17T02:07:00.424Z,4.17
2023-05-17T02:09:27.463Z,4.00
2023-05-17T02:11:54.409Z,4.43
2023-05-17T02:14:21.361Z,4.13
2023-05-17T02:16:48.343Z,4.07
2023-05-17T02:19:15.404Z,4.67
2023-05-17T02:21:42.379Z,4.60
2023-05-17T02:24:09.498Z,4.20
2023-05-17T02:26:36.585Z,4.60
2023-05-17T02:29:03.640Z,3.97
2023-05-17T02:31:30.749Z,4.57
2023-05-17T02:33:57.899Z,5.17
2023-05-17T02:36:24.963Z,4.30
2023-05-17T02:38:51.914Z,4.60
2023-05-17T02:41:18.838Z,4.73
2023-05-17T02:43:45.788Z,4.60
2023-05-17T02:46:12.766Z,4.50
2023-05-17T02:48:39.821Z,4.63
2023-05-17T02:51:06.862Z,4.20
2023-05-17T02:53:33.797Z,4.10
2023-05-17T02:56:00.892Z,4.80
2023-05-17T02:58:27.895Z,4.97
2023-05-17T03:00:54.962Z,5.43
2023-05-17T03:03:22.199Z,4.73
2023-05-17T03:05:49.253Z,5.10
2023-05-17T03:08:16.281Z,5.20
2023-05-17T03:10:43.220Z,5.03
2023-05-17T03:13:10.265Z,4.47
2023-05-17T03:15:37.570Z,5.20
2023-05-17T03:18:04.707Z,5.10
2023-05-17T03:20:31.836Z,5.10
2023-05-17T03:22:58.872Z,4.80
2023-05-17T03:25:25.967Z,4.20
2023-05-17T03:27:53.005Z,3.83
2023-05-17T03:30:20.234Z,3.47
2023-05-17T03:32:47.309Z,4.40
2023-05-17T03:35:14.316Z,3.93
2023-05-17T03:37:41.302Z,4.37
2023-05-17T03:40:08.859Z,4.97
2023-05-17T03:42:36.992Z,5.07
2023-05-17T03:45:05.279Z,4.80
2023-05-17T03:47:32.281Z,4.43
2023-05-17T03:49:59.233Z,4.23
2023-05-17T03:52:26.952Z,4.70
2023-05-17T03:54:53.963Z,5.40
2023-05-17T03:57:22.163Z,4.57
2023-05-17T03:59:49.158Z,4.70
2023-05-17T04:02:17.280Z,4.10
2023-05-17T04:04:51.500Z,4.93
2023-05-17T04:07:19.046Z,4.83
2023-05-17T04:09:46.111Z,5.07
2023-05-17T04:12:13.129Z,4.63
2023-05-17T04:14:40.563Z,4.87
2023-05-17T04:17:07.702Z,5.50
2023-05-17T04:19:44.103Z,4.70
2023-05-17T04:22:11.248Z,4.83
2023-05-17T04:24:38.874Z,4.93
2023-05-17T04:27:08.648Z,5.43
2023-05-17T04:29:35.713Z,5.57
2023-05-17T04:32:02.746Z,5.53
2023-05-17T04:34:31.878Z,5.53
2023-05-17T04:36:59.014Z,5.60
2023-05-17T04:39:26.379Z,6.80
2023-05-17T04:41:53.404Z,6.27
2023-05-17T04:44:20.555Z,6.07
2023-05-17T04:46:47.547Z,6.13
2023-05-17T04:49:14.971Z,5.93
2023-05-17T04:51:43.936Z,6.53
2023-05-17T04:54:10.999Z,6.33
2023-05-17T04:56:37.918Z,6.40
2023-05-17T04:59:04.948Z,6.73
2023-05-17T05:01:31.945Z,6.50
2023-05-17T05:03:59.589Z,5.87
2023-05-17T05:06:26.683Z,5.77
2023-05-17T05:08:53.852Z,6.37
2023-05-17T05:11:21.022Z,5.20
2023-05-17T05:13:47.992Z,6.17
2023-05-17T05:16:14.944Z,6.13
2023-05-17T05:18:42.041Z,7.10
2023-05-17T05:21:09.102Z,6.53
2023-05-17T05:23:36.372Z,7.33
2023-05-17T05:26:03.338Z,7.23
2023-05-17T05:28:30.362Z,8.63
2023-05-17T05:31:01.244Z,8.80
2023-05-17T05:33:28.350Z,8.47
2023-05-17T05:35:55.476Z,8.37
2023-05-17T05:38:22.869Z,8.10
2023-05-17T05:40:49.827Z,8.20
2023-05-17T05:43:16.934Z,8.37
2023-05-17T05:45:46.806Z,8.40
2023-05-17T05:48:14.362Z,7.13
2023-05-17T05:50:44.834Z,7.73
2023-05-17T05:53:18.853Z,7.37
2023-05-17T05:55:46.791Z,7.63
2023-05-17T05:58:13.854Z,7.67
2023-05-17T06:00:40.984Z,8.43
2023-05-17T06:03:08.026Z,7.93
2023-05-17T06:05:35.109Z,8.67
2023-05-17T06:08:02.162Z,8.70
2023-05-17T06:10:29.313Z,8.60
2023-05-17T06:12:57.664Z,8.37
2023-05-17T06:15:24.876Z,7.70
2023-05-17T06:17:51.920Z,7.50
2023-05-17T06:20:19.000Z,8.50
2023-05-17T06:22:46.000Z,8.00
2023-05-17T06:25:13.144Z,7.73
2023-05-17T06:27:40.335Z,6.90
2023-05-17T06:30:08.710Z,6.50
2023-05-17T06:32:36.177Z,6.80
2023-05-17T06:35:03.615Z,7.23
2023-05-17T06:37:30.586Z,6.73
2023-05-17T06:40:16.009Z,6.60
2023-05-17T06:42:44.053Z,6.77
2023-05-17T06:45:11.581Z,6.33
2023-05-17T06:47:38.790Z,6.20
2023-05-17T06:50:07.472Z,6.33
2023-05-17T06:52:35.414Z,6.80
2023-05-17T06:55:02.405Z,5.97
2023-05-17T06:57:29.760Z,6.03
2023-05-17T06:59:56.723Z,6.07
2023-05-17T07:02:23.709Z,5.53
2023-05-17T07:04:50.758Z,5.80
2023-05-17T07:07:18.899Z,5.47
2023-05-17T07:09:45.817Z,5.87
2023-05-17T07:12:12.726Z,5.67
2023-05-17T07:14:39.666Z,5.43
2023-05-17T07:17:06.872Z,6.10
2023-05-17T07:19:33.954Z,6.23
2023-05-17T07:22:01.066Z,5.57
2023-05-17T07:24:28.290Z,5.63
2023-05-17T07:26:55.237Z,5.23
2023-05-17T07:29:22.253Z,5.85
2023-05-17T07:31:49.169Z,5.10
2023-05-17T07:34:16.120Z,5.07
2023-05-17T07:36:43.068Z,5.20
2023-05-17T07:39:10.149Z,5.03
2023-05-17T07:41:37.607Z,5.07
2023-05-17T07:44:04.671Z,5.10
2023-05-17T07:46:31.678Z,4.82
2023-05-17T07:48:59.181Z,4.75
2023-05-17T07:51:26.626Z,4.43
2023-05-17T07:53:53.624Z,4.60
2023-05-17T07:56:20.590Z,4.40
2023-05-17T07:58:47.654Z,4.53
2023-05-17T08:01:14.671Z,4.28
2023-05-17T08:03:47.968Z,4.05
2023-05-17T08:06:18.813Z,3.95
2023-05-17T08:08:45.837Z,4.45
2023-05-17T08:11:14.141Z,3.10
2023-05-17T08:13:41.582Z,3.08
2023-05-17T08:16:14.014Z,3.78
2023-05-17T08:18:43.462Z,3.17
2023-05-17T08:21:11.367Z,3.17
2023-05-17T08:23:39.294Z,2.95
2023-05-17T08:26:06.727Z,3.38
2023-05-17T08:28:33.779Z,3.30
2023-05-17T08:31:01.186Z,3.33
2023-05-17T08:33:28.874Z,3.38
2023-05-17T08:35:58.055Z,3.38
2023-05-17T08:38:25.078Z,3.40
2023-05-17T08:40:59.927Z,3.90
2023-05-17T08:43:28.111Z,3.47
2023-05-17T08:45:57.941Z,3.78
2023-05-17T08:48:31.489Z,3.47
2023-05-17T08:51:00.052Z,3.42
2023-05-17T08:53:27.651Z,3.40
2023-05-17T08:56:00.482Z,3.03
2023-05-17T08:58:52.172Z,3.08
2023-05-17T09:01:25.906Z,3.20
2023-05-17T09:03:54.021Z,2.80
2023-05-17T09:06:22.796Z,3.03
2023-05-17T09:08:58.340Z,3.20
2023-05-17T09:11:35.108Z,2.70
2023-05-17T09:14:06.972Z,2.90
2023-05-17T09:16:36.577Z,2.63
2023-05-17T09:19:05.801Z,2.65
2023-05-17T09:21:34.099Z,2.65
2023-05-17T09:26:46.538Z,3.38
2023-05-17T09:29:16.083Z,2.60
2023-05-17T09:31:44.594Z,2.95
2023-05-17T09:34:12.243Z,3.60
2023-05-17T09:36:43.534Z,2.88
2023-05-17T09:39:13.681Z,3.38
2023-05-17T09:41:48.316Z,3.22
2023-05-17T09:44:16.582Z,3.13
2023-05-17T09:46:48.801Z,2.78
2023-05-17T09:49:17.596Z,2.88
2023-05-17T09:51:47.435Z,2.55
2023-05-17T09:54:14.807Z,2.35
2023-05-17T09:56:42.046Z,2.83
2023-05-17T09:59:14.952Z,2.67
2023-05-17T10:01:45.194Z,2.65
2023-05-17T10:04:13.700Z,2.63
2023-05-17T10:06:49.677Z,2.50
2023-05-17T10:09:21.977Z,2.95
2023-05-17T10:11:52.043Z,2.70
2023-05-17T10:14:33.806Z,2.10
2023-05-17T10:17:03.231Z,2.22
2023-05-17T10:19:31.317Z,2.30
2023-05-17T10:22:08.233Z,2.10
2023-05-17T10:24:39.354Z,2.00
2023-05-17T10:27:10.371Z,1.95
2023-05-17T10:29:39.564Z,1.98
2023-05-17T10:32:10.954Z,2.40
2023-05-17T10:34:39.375Z,2.75
2023-05-17T10:37:06.824Z,2.47
2023-05-17T10:39:35.008Z,2.80
2023-05-17T10:42:14.972Z,2.30
2023-05-17T10:44:42.981Z,2.38
2023-05-17T10:47:11.770Z,2.58
2023-05-17T10:49:41.429Z,2.30
2023-05-17T10:52:17.541Z,2.03
2023-05-17T10:54:49.420Z,2.13
2023-05-17T10:57:50.020Z,2.28
2023-05-17T11:00:22.105Z,1.98
2023-05-17T11:02:50.699Z,1.75
2023-05-17T11:05:26.103Z,2.42
2023-05-17T11:07:53.252Z,2.15
2023-05-17T11:10:20.410Z,2.20
2023-05-17T11:12:54.078Z,1.90
2023-05-17T11:15:26.504Z,2.33
2023-05-17T11:17:54.243Z,2.65
2023-05-17T11:20:27.572Z,2.05
2023-05-17T11:23:00.961Z,2.33
2023-05-17T11:25:37.139Z,2.13
2023-05-17T11:28:35.556Z,2.17
2023-05-17T11:31:11.528Z,2.60
2023-05-17T11:33:47.895Z,2.47
2023-05-17T11:36:22.812Z,2.80
2023-05-17T11:39:01.463Z,2.40
2023-05-17T11:41:41.596Z,2.47
2023-05-17T11:44:10.156Z,2.67
2023-05-17T11:46:39.124Z,2.53
2023-05-17T11:49:11.025Z,2.35
2023-05-17T11:51:39.898Z,2.28
2023-05-17T11:54:07.247Z,2.80
2023-05-17T11:56:43.383Z,3.03
2023-05-17T11:59:11.221Z,2.72
2023-05-17T12:01:46.495Z,2.30
2023-05-17T12:04:13.900Z,2.83
2023-05-17T12:06:41.273Z,2.33
2023-05-17T12:09:11.155Z,3.10
2023-05-17T12:11:39.584Z,3.10
2023-05-17T12:14:07.328Z,2.10
2023-05-17T12:16:36.930Z,2.65
2023-05-17T12:19:04.143Z,2.60
2023-05-17T12:21:31.233Z,2.90
2023-05-17T12:23:58.205Z,2.38
2023-05-17T12:26:26.204Z,2.42
2023-05-17T12:28:58.876Z,2.15
2023-05-17T12:31:36.804Z,2.72
2023-05-17T12:34:06.981Z,2.75
2023-05-17T12:36:34.401Z,2.40
2023-05-17T12:39:02.038Z,2.65
2023-05-17T12:41:30.802Z,2.17
2023-05-17T12:44:13.713Z,2.90
2023-05-17T12:46:42.218Z,2.30
2023-05-17T12:49:11.147Z,2.38
2023-05-17T12:51:43.843Z,2.40
2023-05-17T12:54:12.790Z,2.63
2023-05-17T12:56:46.407Z,2.88
2023-05-17T12:59:25.318Z,2.65
2023-05-17T13:01:57.321Z,2.28
2023-05-17T13:04:33.922Z,2.50
2023-05-17T13:07:04.157Z,2.00
2023-05-17T13:09:33.415Z,2.60
2023-05-17T13:12:05.661Z,2.38
2023-05-17T13:14:46.896Z,2.10
2023-05-17T13:17:34.520Z,2.40
2023-05-17T13:20:01.742Z,2.17
2023-05-17T13:22:28.903Z,2.33
2023-05-17T13:24:56.039Z,2.30
2023-05-17T13:27:23.055Z,2.35
2023-05-17T13:29:50.054Z,2.70
2023-05-17T13:32:17.020Z,2.42
2023-05-17T13:34:43.989Z,2.10
2023-05-17T13:37:12.524Z,2.00
2023-05-17T13:39:41.152Z,1.98
2023-05-17T13:42:08.716Z,2.08
2023-05-17T13:44:35.864Z,1.88
2023-05-17T13:47:02.796Z,2.03
2023-05-17T13:49:29.782Z,2.15
2023-05-17T13:51:56.906Z,2.00
2023-05-17T13:54:24.071Z,2.00
2023-05-17T13:56:51.278Z,2.17
2023-05-17T13:59:18.534Z,1.63
2023-05-17T14:01:45.957Z,1.70
2023-05-17T14:04:13.387Z,1.77
2023-05-17T14:06:42.582Z,1.60
2023-05-17T14:09:11.840Z,1.90
2023-05-17T14:11:39.652Z,2.00
2023-05-17T14:14:06.885Z,2.08
2023-05-17T14:16:33.813Z,2.17
2023-05-17T14:19:04.218Z,1.85
2023-05-17T14:21:32.106Z,1.55
2023-05-17T14:23:59.101Z,1.90
2023-05-17T14:26:26.744Z,1.92
2023-05-17T14:28:56.472Z,1.38
2023-05-17T14:31:23.468Z,1.70
2023-05-17T14:33:51.188Z,1.60
2023-05-17T14:36:18.163Z,1.80
2023-05-17T14:38:45.101Z,2.10
2023-05-17T14:41:12.046Z,1.67
2023-05-17T14:43:38.999Z,1.63
2023-05-17T14:46:06.116Z,1.85
2023-05-17T14:48:35.077Z,1.67
2023-05-17T14:51:03.426Z,2.33
2023-05-17T14:53:30.758Z,2.13
2023-05-17T14:55:59.069Z,1.80
2023-05-17T14:58:26.487Z,1.80
2023-05-17T15:01:05.337Z,1.70
2023-05-17T15:03:34.561Z,1.48
2023-05-17T15:06:04.531Z,2.22
2023-05-17T15:08:33.448Z,2.33
2023-05-17T15:11:00.908Z,2.05
2023-05-17T15:13:27.820Z,2.35
2023-05-17T15:15:55.146Z,2.15
2023-05-17T15:18:22.764Z,1.90
2023-05-17T15:20:49.791Z,2.25
2023-05-17T15:23:16.748Z,2.30
2023-05-17T15:25:43.775Z,2.22
2023-05-17T15:28:10.798Z,2.05
2023-05-17T15:30:37.758Z,2.28
2023-05-17T15:33:04.928Z,2.30
2023-05-17T15:35:32.009Z,2.58
2023-05-17T15:38:02.258Z,2.65
2023-05-17T15:40:29.211Z,2.10
2023-05-17T15:42:56.207Z,2.10
2023-05-17T15:45:23.228Z,2.40
2023-05-17T15:47:53.571Z,1.75
2023-05-17T15:50:20.784Z,2.30
2023-05-17T15:52:48.860Z,1.88
2023-05-17T15:55:16.305Z,2.22
2023-05-17T15:57:43.269Z,2.25
2023-05-17T16:00:11.193Z,1.70
2023-05-17T16:02:38.267Z,2.10
2023-05-17T16:05:06.039Z,1.98
2023-05-17T16:07:33.004Z,1.70
2023-05-17T16:09:59.976Z,2.20
2023-05-17T16:12:26.890Z,2.15
2023-05-17T16:14:53.860Z,1.90
2023-05-17T16:17:21.217Z,2.15
2023-05-17T16:19:48.224Z,1.50
2023-05-17T16:22:15.138Z,1.88
2023-05-17T16:24:42.080Z,1.77
2023-05-17T16:27:09.012Z,1.60
2023-05-17T16:29:40.397Z,2.30
2023-05-17T16:32:08.352Z,2.63
2023-05-17T16:34:36.114Z,2.17
2023-05-17T16:37:04.510Z,1.85
2023-05-17T16:39:32.921Z,1.67
2023-05-17T16:41:59.967Z,2.00
2023-05-17T16:44:26.940Z,1.80
2023-05-17T16:46:54.014Z,2.28
2023-05-17T16:49:21.344Z,2.20
2023-05-17T16:51:50.014Z,2.40
2023-05-17T16:54:16.950Z,2.95
2023-05-17T16:56:43.992Z,3.25
2023-05-17T16:59:11.466Z,2.95
2023-05-17T17:01:38.470Z,3.17
2023-05-17T17:04:06.094Z,2.95
2023-05-17T17:06:33.890Z,2.80
2023-05-17T17:09:06.285Z,2.30
2023-05-17T17:11:34.807Z,2.00
2023-05-17T17:14:01.968Z,2.10
2023-05-17T17:16:29.429Z,2.03
2023-05-17T17:18:56.692Z,1.92
2023-05-17T17:21:23.898Z,2.00
2023-05-17T17:23:51.969Z,2.30
2023-05-17T17:26:18.878Z,2.20
2023-05-17T17:28:46.049Z,2.13
2023-05-17T17:31:13.099Z,2.00
2023-05-17T17:33:40.213Z,2.25
2023-05-17T17:36:09.198Z,2.40
2023-05-17T17:38:36.316Z,1.90
2023-05-17T17:41:03.492Z,2.10
2023-05-17T17:43:30.418Z,2.13
2023-05-17T17:45:57.348Z,2.20
2023-05-17T17:48:25.555Z,2.13
2023-05-17T17:50:52.551Z,2.20
2023-05-17T17:53:19.496Z,2.10
2023-05-17T17:55:46.420Z,1.95
2023-05-17T17:58:13.875Z,2.50
2023-05-17T18:00:41.551Z,2.20
2023-05-17T18:03:08.540Z,2.25
2023-05-17T18:05:35.686Z,2.10
2023-05-17T18:08:02.614Z,1.98
2023-05-17T18:10:31.338Z,2.60
2023-05-17T18:12:59.188Z,3.05
2023-05-17T18:15:26.405Z,2.47
2023-05-17T18:17:54.739Z,2.53
2023-05-17T18:20:26.242Z,2.55
2023-05-17T18:22:53.377Z,2.80
2023-05-17T18:25:20.784Z,2.53
2023-05-17T18:27:47.784Z,2.70
2023-05-17T18:30:14.811Z,2.38
2023-05-17T18:32:41.945Z,2.40
2023-05-17T18:35:09.315Z,2.38
2023-05-17T18:37:36.318Z,2.67
2023-05-17T18:40:03.642Z,2.25
2023-05-17T18:42:30.652Z,2.15
2023-05-17T18:44:58.302Z,2.60
2023-05-17T18:47:27.726Z,2.65
2023-05-17T18:49:54.873Z,2.45
2023-05-17T18:52:22.107Z,3.05
2023-05-17T18:54:49.170Z,2.50
2023-05-17T18:57:16.160Z,2.78
2023-05-17T18:59:43.356Z,2.20
2023-05-17T19:02:10.334Z,2.67
2023-05-17T19:04:37.415Z,2.70
2023-05-17T19:07:04.954Z,2.50
2023-05-17T19:09:33.596Z,2.65
2023-05-17T19:12:01.220Z,2.30
2023-05-17T19:14:28.461Z,2.58
2023-05-17T19:16:56.999Z,2.10
2023-05-17T19:19:25.332Z,2.70
2023-05-17T19:21:52.473Z,2.43
2023-05-17T19:24:19.428Z,3.03
2023-05-17T19:26:46.423Z,2.72
2023-05-17T19:29:13.443Z,2.47
2023-05-17T19:31:40.423Z,2.83
2023-05-17T19:34:07.388Z,3.13
2023-05-17T19:36:34.360Z,2.53
2023-05-17T19:39:01.369Z,2.80
2023-05-17T19:41:28.405Z,2.50
2023-05-17T19:43:55.357Z,2.23
2023-05-17T19:46:22.518Z,2.67
2023-05-17T19:48:49.545Z,2.53
2023-05-17T19:51:16.717Z,2.50
2023-05-17T19:53:52.763Z,2.23
2023-05-17T19:56:23.616Z,2.17
2023-05-17T19:58:52.436Z,2.70
2023-05-17T20:01:19.772Z,2.20
2023-05-17T20:03:47.042Z,2.67
2023-05-17T20:06:15.035Z,2.70
2023-05-17T20:08:42.485Z,2.70
2023-05-17T20:11:09.757Z,2.47
2023-05-17T20:13:40.319Z,2.30
2023-05-17T20:16:14.894Z,2.47
2023-05-17T20:18:43.337Z,2.97
2023-05-17T20:21:12.789Z,2.53
2023-05-17T20:23:40.184Z,2.57
2023-05-17T20:26:07.167Z,2.90
2023-05-17T20:28:34.125Z,3.13
2023-05-17T20:31:01.176Z,3.20
2023-05-17T20:33:28.177Z,2.60
2023-05-17T20:35:55.201Z,3.30
2023-05-17T20:38:22.239Z,3.10
2023-05-17T20:40:49.179Z,2.80
2023-05-17T20:43:16.789Z,3.17
2023-05-17T20:45:45.911Z,3.23
2023-05-17T20:48:13.382Z,3.40
2023-05-17T20:50:40.582Z,2.97
2023-05-17T20:53:07.649Z,2.83
2023-05-17T20:55:34.576Z,3.10
2023-05-17T20:58:01.484Z,3.17
2023-05-17T21:00:28.671Z,2.93
2023-05-17T21:02:56.103Z,3.20
2023-05-17T21:05:23.247Z,3.30
2023-05-17T21:07:50.538Z,2.93
2023-05-17T21:10:17.978Z,3.00
2023-05-17T21:12:44.928Z,3.37
2023-05-17T21:15:16.355Z,3.27
2023-05-17T21:17:57.841Z,3.37
2023-05-17T21:20:25.056Z,3.10
2023-05-17T21:22:51.975Z,2.73
2023-05-17T21:25:19.110Z,2.77
2023-05-17T21:27:46.347Z,3.47
2023-05-17T21:30:13.441Z,3.13
2023-05-17T21:32:40.463Z,3.53
2023-05-17T21:35:08.052Z,3.60
2023-05-17T21:37:38.346Z,3.20
2023-05-17T21:40:07.012Z,3.80
2023-05-17T21:42:34.516Z,3.57
2023-05-17T21:45:02.255Z,3.73
2023-05-17T21:47:29.201Z,3.47
2023-05-17T21:49:56.291Z,3.47
2023-05-17T21:52:23.344Z,3.50
2023-05-17T21:54:50.348Z,3.93
2023-05-17T21:57:17.325Z,3.53
2023-05-17T21:59:44.243Z,4.20
2023-05-17T22:02:11.223Z,4.30
2023-05-17T22:04:38.930Z,3.80
2023-05-17T22:07:06.213Z,3.90
2023-05-17T22:09:34.225Z,3.80
2023-05-17T22:12:01.357Z,3.97
2023-05-17T22:14:33.144Z,4.20
2023-05-17T22:17:00.432Z,3.47
2023-05-17T22:19:30.277Z,4.20
2023-05-17T22:21:57.410Z,4.30
2023-05-17T22:24:24.336Z,3.50
2023-05-17T22:26:51.400Z,4.10
2023-05-17T22:29:18.326Z,4.00
2023-05-17T22:31:47.307Z,3.77
2023-05-17T22:34:14.392Z,3.70
2023-05-17T22:36:42.224Z,3.80
2023-05-17T22:39:09.823Z,4.33
2023-05-17T22:41:36.856Z,4.57
2023-05-17T22:44:04.008Z,4.23
2023-05-17T22:46:31.994Z,4.37
2023-05-17T22:48:59.138Z,4.40
2023-05-17T22:51:29.954Z,4.53
2023-05-17T22:53:57.886Z,4.37
2023-05-17T22:56:24.868Z,4.60
2023-05-17T22:58:51.776Z,3.93
2023-05-17T23:01:18.724Z,4.07
2023-05-17T23:03:46.075Z,4.60
2023-05-17T23:06:13.134Z,4.53
2023-05-17T23:08:41.970Z,4.70
2023-05-17T23:11:09.073Z,4.20
2023-05-17T23:13:36.417Z,5.20
2023-05-17T23:16:04.263Z,4.73
2023-05-17T23:18:31.337Z,5.30
2023-05-17T23:20:58.994Z,4.80
2023-05-17T23:23:26.411Z,4.90
2023-05-17T23:25:56.419Z,4.87
2023-05-17T23:28:26.843Z,4.53
2023-05-17T23:30:54.505Z,4.40
2023-05-17T23:33:21.657Z,4.80
2023-05-17T23:35:48.594Z,4.33
2023-05-17T23:38:15.637Z,4.60
2023-05-17T23:40:42.598Z,4.20
2023-05-17T23:43:10.306Z,4.33
2023-05-17T23:45:37.645Z,4.80
2023-05-17T23:48:04.957Z,4.60
2023-05-17T23:50:31.968Z,4.87
2023-05-17T23:53:03.682Z,4.53
2023-05-17T23:55:31.290Z,4.33
2023-05-17T23:57:58.195Z,4.17
